sensor_id;sensor_type;location;lat;lon;timestamp;P1;durP1;ratioP1;P2;durP2;ratioP2
18544;SDS011;9402;51.460;7.276;2023-04-02T00:00:18;30.73;;;23.65;;
18544;SDS011;9402;51.460;7.276;2023-04-02T00:02:24;32.95;;;23.15;;
18544;SDS011;9402;51.460;7.276;2023-04-02T00:04:31;29.63;;;23.15;;
18544;SDS011;9402;51.460;7.276;2023-04-02T00:06:37;36.55;;;24.63;;
18544;SDS011;9402;51.460;7.276;2023-04-02T00:08:43;30.55;;;22.80;;
18544;SDS011;9402;51.460;7.276;2023-04-02T00:10:48;35.83;;;25.05;;
18544;SDS011;9402;51.460;7.276;2023-04-02T00:13:00;31.17;;;24.10;;
18544;SDS011;9402;51.460;7.276;2023-04-02T00:15:04;30.45;;;22.80;;
18544;SDS011;9402;51.460;7.276;2023-04-02T00:17:09;32.05;;;23.90;;
18544;SDS011;9402;51.460;7.276;2023-04-02T00:19:12;29.58;;;22.90;;
18544;SDS011;9402;51.460;7.276;2023-04-02T00:21:19;31.65;;;23.92;;
18544;SDS011;9402;51.460;7.276;2023-04-02T00:23:23;31.58;;;21.95;;
18544;SDS011;9402;51.460;7.276;2023-04-02T00:25:25;32.60;;;22.75;;
18544;SDS011;9402;51.460;7.276;2023-04-02T00:27:29;32.25;;;23.33;;
18544;SDS011;9402;51.460;7.276;2023-04-02T00:29:33;29.45;;;19.33;;
18544;SDS011;9402;51.460;7.276;2023-04-02T00:31:36;32.63;;;21.95;;
18544;SDS011;9402;51.460;7.276;2023-04-02T00:33:41;34.30;;;20.83;;
18544;SDS011;9402;51.460;7.276;2023-04-02T00:35:43;29.42;;;20.92;;
18544;SDS011;9402;51.460;7.276;2023-04-02T00:37:46;29.20;;;21.67;;
18544;SDS011;9402;51.460;7.276;2023-04-02T00:39:49;31.77;;;22.33;;
18544;SDS011;9402;51.460;7.276;2023-04-02T00:41:53;31.52;;;22.58;;
18544;SDS011;9402;51.460;7.276;2023-04-02T00:44:04;33.22;;;20.88;;
18544;SDS011;9402;51.460;7.276;2023-04-02T00:46:09;35.67;;;24.88;;
18544;SDS011;9402;51.460;7.276;2023-04-02T00:48:15;32.67;;;22.48;;
18544;SDS011;9402;51.460;7.276;2023-04-02T00:50:26;36.55;;;24.30;;
18544;SDS011;9402;51.460;7.276;2023-04-02T00:52:30;27.85;;;21.95;;
18544;SDS011;9402;51.460;7.276;2023-04-02T00:54:36;30.33;;;21.30;;
18544;SDS011;9402;51.460;7.276;2023-04-02T00:56:42;28.52;;;21.00;;
18544;SDS011;9402;51.460;7.276;2023-04-02T00:58:49;30.77;;;21.10;;
18544;SDS011;9402;51.460;7.276;2023-04-02T01:00:52;25.52;;;19.75;;
18544;SDS011;9402;51.460;7.276;2023-04-02T01:03:26;25.45;;;18.90;;
18544;SDS011;9402;51.460;7.276;2023-04-02T01:05:35;26.63;;;19.88;;
18544;SDS011;9402;51.460;7.276;2023-04-02T01:07:41;25.30;;;19.88;;
18544;SDS011;9402;51.460;7.276;2023-04-02T01:09:58;27.95;;;19.70;;
18544;SDS011;9402;51.460;7.276;2023-04-02T01:12:23;20.05;;;16.50;;
18544;SDS011;9402;51.460;7.276;2023-04-02T01:14:48;20.85;;;15.70;;
18544;SDS011;9402;51.460;7.276;2023-04-02T01:16:57;19.20;;;14.18;;
18544;SDS011;9402;51.460;7.276;2023-04-02T01:19:06;19.95;;;15.25;;
18544;SDS011;9402;51.460;7.276;2023-04-02T01:21:23;20.63;;;13.15;;
18544;SDS011;9402;51.460;7.276;2023-04-02T01:23:33;17.85;;;14.40;;
18544;SDS011;9402;51.460;7.276;2023-04-02T01:25:40;17.25;;;11.93;;
18544;SDS011;9402;51.460;7.276;2023-04-02T01:27:46;15.80;;;11.68;;
18544;SDS011;9402;51.460;7.276;2023-04-02T01:29:53;16.15;;;11.40;;
18544;SDS011;9402;51.460;7.276;2023-04-02T01:31:57;13.48;;;10.40;;
18544;SDS011;9402;51.460;7.276;2023-04-02T01:34:02;18.33;;;11.65;;
18544;SDS011;9402;51.460;7.276;2023-04-02T01:36:08;16.80;;;12.07;;
18544;SDS011;9402;51.460;7.276;2023-04-02T01:38:12;23.10;;;15.60;;
18544;SDS011;9402;51.460;7.276;2023-04-02T01:40:21;22.25;;;14.60;;
18544;SDS011;9402;51.460;7.276;2023-04-02T01:42:31;21.63;;;15.40;;
18544;SDS011;9402;51.460;7.276;2023-04-02T01:44:38;24.25;;;16.48;;
18544;SDS011;9402;51.460;7.276;2023-04-02T01:46:46;19.27;;;14.38;;
18544;SDS011;9402;51.460;7.276;2023-04-02T01:48:49;19.70;;;15.88;;
18544;SDS011;9402;51.460;7.276;2023-04-02T01:50:53;20.73;;;15.60;;
18544;SDS011;9402;51.460;7.276;2023-04-02T01:52:58;20.00;;;15.45;;
18544;SDS011;9402;51.460;7.276;2023-04-02T01:55:01;19.83;;;13.85;;
18544;SDS011;9402;51.460;7.276;2023-04-02T01:57:04;23.25;;;17.15;;
18544;SDS011;9402;51.460;7.276;2023-04-02T01:59:08;22.88;;;15.85;;
18544;SDS011;9402;51.460;7.276;2023-04-02T02:01:12;21.20;;;16.95;;
18544;SDS011;9402;51.460;7.276;2023-04-02T02:03:16;22.60;;;15.88;;
18544;SDS011;9402;51.460;7.276;2023-04-02T02:05:20;23.45;;;15.48;;
18544;SDS011;9402;51.460;7.276;2023-04-02T02:07:23;20.95;;;14.00;;
18544;SDS011;9402;51.460;7.276;2023-04-02T02:09:28;16.13;;;12.18;;
18544;SDS011;9402;51.460;7.276;2023-04-02T02:11:32;14.73;;;11.30;;
18544;SDS011;9402;51.460;7.276;2023-04-02T02:13:35;16.02;;;11.57;;
18544;SDS011;9402;51.460;7.276;2023-04-02T02:15:37;15.75;;;12.25;;
18544;SDS011;9402;51.460;7.276;2023-04-02T02:17:40;20.55;;;11.32;;
18544;SDS011;9402;51.460;7.276;2023-04-02T02:19:44;15.35;;;11.60;;
18544;SDS011;9402;51.460;7.276;2023-04-02T02:21:48;17.67;;;11.07;;
18544;SDS011;9402;51.460;7.276;2023-04-02T02:23:51;15.85;;;11.25;;
18544;SDS011;9402;51.460;7.276;2023-04-02T02:25:55;14.90;;;10.85;;
18544;SDS011;9402;51.460;7.276;2023-04-02T02:27:58;18.17;;;11.68;;
18544;SDS011;9402;51.460;7.276;2023-04-02T02:30:04;14.35;;;10.60;;
18544;SDS011;9402;51.460;7.276;2023-04-02T02:32:11;17.75;;;12.98;;
18544;SDS011;9402;51.460;7.276;2023-04-02T02:34:15;16.58;;;12.60;;
18544;SDS011;9402;51.460;7.276;2023-04-02T02:36:23;19.27;;;13.50;;
18544;SDS011;9402;51.460;7.276;2023-04-02T02:38:36;14.18;;;10.88;;
18544;SDS011;9402;51.460;7.276;2023-04-02T02:40:45;14.45;;;9.75;;
18544;SDS011;9402;51.460;7.276;2023-04-02T02:42:50;13.07;;;9.27;;
18544;SDS011;9402;51.460;7.276;2023-04-02T02:44:54;11.80;;;9.00;;
18544;SDS011;9402;51.460;7.276;2023-04-02T02:46:59;16.30;;;8.82;;
18544;SDS011;9402;51.460;7.276;2023-04-02T02:49:02;13.25;;;8.90;;
18544;SDS011;9402;51.460;7.276;2023-04-02T02:51:07;16.05;;;9.70;;
18544;SDS011;9402;51.460;7.276;2023-04-02T02:53:16;11.27;;;8.30;;
18544;SDS011;9402;51.460;7.276;2023-04-02T02:55:20;14.80;;;9.40;;
18544;SDS011;9402;51.460;7.276;2023-04-02T02:57:27;13.80;;;9.48;;
18544;SDS011;9402;51.460;7.276;2023-04-02T02:59:32;12.10;;;8.73;;
18544;SDS011;9402;51.460;7.276;2023-04-02T03:01:35;11.88;;;8.27;;
18544;SDS011;9402;51.460;7.276;2023-04-02T03:03:37;13.40;;;8.50;;
18544;SDS011;9402;51.460;7.276;2023-04-02T03:05:39;10.50;;;8.15;;
18544;SDS011;9402;51.460;7.276;2023-04-02T03:07:42;10.95;;;7.18;;
18544;SDS011;9402;51.460;7.276;2023-04-02T03:09:48;10.30;;;7.13;;
18544;SDS011;9402;51.460;7.276;2023-04-02T03:11:53;10.70;;;7.43;;
18544;SDS011;9402;51.460;7.276;2023-04-02T03:14:02;12.35;;;7.75;;
18544;SDS011;9402;51.460;7.276;2023-04-02T03:16:09;12.02;;;7.65;;
18544;SDS011;9402;51.460;7.276;2023-04-02T03:18:16;9.55;;;6.80;;
18544;SDS011;9402;51.460;7.276;2023-04-02T03:20:25;13.60;;;8.77;;
18544;SDS011;9402;51.460;7.276;2023-04-02T03:22:33;10.55;;;7.43;;
18544;SDS011;9402;51.460;7.276;2023-04-02T03:24:40;10.48;;;7.85;;
18544;SDS011;9402;51.460;7.276;2023-04-02T03:26:51;13.68;;;8.85;;
18544;SDS011;9402;51.460;7.276;2023-04-02T03:28:58;14.18;;;9.73;;
18544;SDS011;9402;51.460;7.276;2023-04-02T03:31:04;13.88;;;8.85;;
18544;SDS011;9402;51.460;7.276;2023-04-02T03:33:10;13.82;;;9.18;;
18544;SDS011;9402;51.460;7.276;2023-04-02T03:35:17;15.90;;;11.60;;
18544;SDS011;9402;51.460;7.276;2023-04-02T03:37:23;18.88;;;12.55;;
18544;SDS011;9402;51.460;7.276;2023-04-02T03:39:29;20.75;;;13.57;;
18544;SDS011;9402;51.460;7.276;2023-04-02T03:41:39;21.42;;;14.55;;
18544;SDS011;9402;51.460;7.276;2023-04-02T03:43:45;22.92;;;15.95;;
18544;SDS011;9402;51.460;7.276;2023-04-02T03:45:48;20.65;;;15.48;;
18544;SDS011;9402;51.460;7.276;2023-04-02T03:47:54;16.13;;;13.32;;
18544;SDS011;9402;51.460;7.276;2023-04-02T03:49:59;16.65;;;13.43;;
18544;SDS011;9402;51.460;7.276;2023-04-02T03:52:04;20.17;;;15.10;;
18544;SDS011;9402;51.460;7.276;2023-04-02T03:54:09;21.08;;;14.60;;
18544;SDS011;9402;51.460;7.276;2023-04-02T03:56:17;20.88;;;15.45;;
18544;SDS011;9402;51.460;7.276;2023-04-02T03:58:26;17.67;;;14.88;;
18544;SDS011;9402;51.460;7.276;2023-04-02T04:00:33;24.83;;;18.00;;
18544;SDS011;9402;51.460;7.276;2023-04-02T04:02:38;26.30;;;17.17;;
18544;SDS011;9402;51.460;7.276;2023-04-02T04:04:42;24.23;;;17.75;;
18544;SDS011;9402;51.460;7.276;2023-04-02T04:06:47;24.38;;;19.33;;
18544;SDS011;9402;51.460;7.276;2023-04-02T04:08:52;28.05;;;18.40;;
18544;SDS011;9402;51.460;7.276;2023-04-02T04:10:56;24.73;;;17.55;;
18544;SDS011;9402;51.460;7.276;2023-04-02T04:13:03;30.17;;;18.65;;
18544;SDS011;9402;51.460;7.276;2023-04-02T04:15:12;26.73;;;18.55;;
18544;SDS011;9402;51.460;7.276;2023-04-02T04:17:18;24.17;;;16.80;;
18544;SDS011;9402;51.460;7.276;2023-04-02T04:19:23;20.52;;;15.27;;
18544;SDS011;9402;51.460;7.276;2023-04-02T04:21:31;19.58;;;15.40;;
18544;SDS011;9402;51.460;7.276;2023-04-02T04:23:37;22.42;;;16.08;;
18544;SDS011;9402;51.460;7.276;2023-04-02T04:25:40;21.13;;;15.95;;
18544;SDS011;9402;51.460;7.276;2023-04-02T04:27:42;21.75;;;16.65;;
18544;SDS011;9402;51.460;7.276;2023-04-02T04:29:54;27.23;;;17.17;;
18544;SDS011;9402;51.460;7.276;2023-04-02T04:32:13;29.70;;;18.90;;
18544;SDS011;9402;51.460;7.276;2023-04-02T04:34:21;30.30;;;18.48;;
18544;SDS011;9402;51.460;7.276;2023-04-02T04:36:29;31.00;;;20.60;;
18544;SDS011;9402;51.460;7.276;2023-04-02T04:38:37;30.60;;;21.02;;
18544;SDS011;9402;51.460;7.276;2023-04-02T04:40:44;32.42;;;21.95;;
18544;SDS011;9402;51.460;7.276;2023-04-02T04:42:51;27.92;;;19.65;;
18544;SDS011;9402;51.460;7.276;2023-04-02T04:44:57;34.90;;;21.42;;
18544;SDS011;9402;51.460;7.276;2023-04-02T04:47:05;32.08;;;19.30;;
18544;SDS011;9402;51.460;7.276;2023-04-02T04:49:12;36.28;;;23.70;;
18544;SDS011;9402;51.460;7.276;2023-04-02T04:51:18;33.30;;;20.75;;
18544;SDS011;9402;51.460;7.276;2023-04-02T04:53:23;31.08;;;19.25;;
18544;SDS011;9402;51.460;7.276;2023-04-02T04:55:27;33.17;;;21.98;;
18544;SDS011;9402;51.460;7.276;2023-04-02T04:57:35;39.08;;;24.02;;
18544;SDS011;9402;51.460;7.276;2023-04-02T04:59:39;46.80;;;23.40;;
18544;SDS011;9402;51.460;7.276;2023-04-02T05:01:44;34.67;;;23.13;;
18544;SDS011;9402;51.460;7.276;2023-04-02T05:03:49;37.70;;;21.38;;
18544;SDS011;9402;51.460;7.276;2023-04-02T05:05:58;29.38;;;19.58;;
18544;SDS011;9402;51.460;7.276;2023-04-02T05:08:04;35.67;;;19.77;;
18544;SDS011;9402;51.460;7.276;2023-04-02T05:10:12;32.67;;;19.15;;
18544;SDS011;9402;51.460;7.276;2023-04-02T05:12:20;37.03;;;21.80;;
18544;SDS011;9402;51.460;7.276;2023-04-02T05:14:32;37.30;;;21.73;;
18544;SDS011;9402;51.460;7.276;2023-04-02T05:16:37;32.83;;;18.73;;
18544;SDS011;9402;51.460;7.276;2023-04-02T05:18:43;34.78;;;19.65;;
18544;SDS011;9402;51.460;7.276;2023-04-02T05:20:48;35.05;;;20.85;;
18544;SDS011;9402;51.460;7.276;2023-04-02T05:22:55;40.15;;;19.80;;
18544;SDS011;9402;51.460;7.276;2023-04-02T05:25:06;31.15;;;19.75;;
18544;SDS011;9402;51.460;7.276;2023-04-02T05:27:18;33.88;;;18.50;;
18544;SDS011;9402;51.460;7.276;2023-04-02T05:29:28;34.58;;;18.90;;
18544;SDS011;9402;51.460;7.276;2023-04-02T05:31:35;39.65;;;21.40;;
18544;SDS011;9402;51.460;7.276;2023-04-02T05:33:41;29.48;;;20.05;;
18544;SDS011;9402;51.460;7.276;2023-04-02T05:35:45;34.80;;;20.83;;
18544;SDS011;9402;51.460;7.276;2023-04-02T05:37:49;34.88;;;21.45;;
18544;SDS011;9402;51.460;7.276;2023-04-02T05:39:54;38.08;;;18.45;;
18544;SDS011;9402;51.460;7.276;2023-04-02T05:41:58;37.60;;;19.83;;
18544;SDS011;9402;51.460;7.276;2023-04-02T05:44:04;29.75;;;19.60;;
18544;SDS011;9402;51.460;7.276;2023-04-02T05:46:13;35.13;;;20.35;;
18544;SDS011;9402;51.460;7.276;2023-04-02T05:48:17;35.67;;;19.08;;
18544;SDS011;9402;51.460;7.276;2023-04-02T05:50:23;28.38;;;17.73;;
18544;SDS011;9402;51.460;7.276;2023-04-02T05:52:29;41.95;;;18.50;;
18544;SDS011;9402;51.460;7.276;2023-04-02T05:54:37;32.38;;;17.63;;
18544;SDS011;9402;51.460;7.276;2023-04-02T05:56:45;31.88;;;17.55;;
18544;SDS011;9402;51.460;7.276;2023-04-02T05:58:48;40.47;;;20.63;;
18544;SDS011;9402;51.460;7.276;2023-04-02T06:00:56;34.13;;;18.67;;
18544;SDS011;9402;51.460;7.276;2023-04-02T06:03:07;29.42;;;18.35;;
18544;SDS011;9402;51.460;7.276;2023-04-02T06:05:18;30.88;;;17.75;;
18544;SDS011;9402;51.460;7.276;2023-04-02T06:07:23;27.92;;;17.45;;
18544;SDS011;9402;51.460;7.276;2023-04-02T06:09:30;25.35;;;16.08;;
18544;SDS011;9402;51.460;7.276;2023-04-02T06:11:38;34.80;;;17.55;;
18544;SDS011;9402;51.460;7.276;2023-04-02T06:13:43;30.33;;;16.70;;
18544;SDS011;9402;51.460;7.276;2023-04-02T06:15:45;34.67;;;18.33;;
18544;SDS011;9402;51.460;7.276;2023-04-02T06:17:50;27.63;;;15.38;;
18544;SDS011;9402;51.460;7.276;2023-04-02T06:19:53;27.45;;;16.77;;
18544;SDS011;9402;51.460;7.276;2023-04-02T06:21:57;36.83;;;15.68;;
18544;SDS011;9402;51.460;7.276;2023-04-02T06:24:08;32.50;;;16.15;;
18544;SDS011;9402;51.460;7.276;2023-04-02T06:26:15;29.85;;;14.75;;
18544;SDS011;9402;51.460;7.276;2023-04-02T06:28:23;29.70;;;13.18;;
18544;SDS011;9402;51.460;7.276;2023-04-02T06:30:29;28.02;;;13.73;;
18544;SDS011;9402;51.460;7.276;2023-04-02T06:32:33;34.83;;;12.60;;
18544;SDS011;9402;51.460;7.276;2023-04-02T06:34:37;31.40;;;13.23;;
18544;SDS011;9402;51.460;7.276;2023-04-02T06:36:40;31.05;;;14.32;;
18544;SDS011;9402;51.460;7.276;2023-04-02T06:38:42;25.73;;;13.75;;
18544;SDS011;9402;51.460;7.276;2023-04-02T06:40:46;25.58;;;13.10;;
18544;SDS011;9402;51.460;7.276;2023-04-02T06:42:50;26.55;;;13.15;;
18544;SDS011;9402;51.460;7.276;2023-04-02T06:44:58;19.77;;;12.75;;
18544;SDS011;9402;51.460;7.276;2023-04-02T06:47:03;22.77;;;12.48;;
18544;SDS011;9402;51.460;7.276;2023-04-02T06:49:11;22.05;;;14.15;;
18544;SDS011;9402;51.460;7.276;2023-04-02T06:51:19;21.63;;;12.40;;
18544;SDS011;9402;51.460;7.276;2023-04-02T06:53:24;24.30;;;13.00;;
18544;SDS011;9402;51.460;7.276;2023-04-02T06:55:30;33.72;;;13.70;;
18544;SDS011;9402;51.460;7.276;2023-04-02T06:57:33;25.65;;;12.73;;
18544;SDS011;9402;51.460;7.276;2023-04-02T06:59:36;22.10;;;12.50;;
18544;SDS011;9402;51.460;7.276;2023-04-02T07:01:40;29.77;;;12.18;;
18544;SDS011;9402;51.460;7.276;2023-04-02T07:03:45;25.23;;;12.75;;
18544;SDS011;9402;51.460;7.276;2023-04-02T07:05:47;22.17;;;12.57;;
18544;SDS011;9402;51.460;7.276;2023-04-02T07:07:50;19.30;;;11.90;;
18544;SDS011;9402;51.460;7.276;2023-04-02T07:09:52;17.85;;;10.68;;
18544;SDS011;9402;51.460;7.276;2023-04-02T07:11:55;23.13;;;11.05;;
18544;SDS011;9402;51.460;7.276;2023-04-02T07:13:57;24.23;;;9.85;;
18544;SDS011;9402;51.460;7.276;2023-04-02T07:16:00;26.63;;;9.20;;
18544;SDS011;9402;51.460;7.276;2023-04-02T07:18:02;19.10;;;9.52;;
18544;SDS011;9402;51.460;7.276;2023-04-02T07:20:08;15.88;;;8.85;;
18544;SDS011;9402;51.460;7.276;2023-04-02T07:22:26;20.05;;;8.07;;
18544;SDS011;9402;51.460;7.276;2023-04-02T07:24:28;12.88;;;7.90;;
18544;SDS011;9402;51.460;7.276;2023-04-02T07:26:30;12.40;;;6.90;;
18544;SDS011;9402;51.460;7.276;2023-04-02T07:28:33;15.20;;;7.25;;
18544;SDS011;9402;51.460;7.276;2023-04-02T07:30:35;17.45;;;7.50;;
18544;SDS011;9402;51.460;7.276;2023-04-02T07:32:38;18.13;;;7.70;;
18544;SDS011;9402;51.460;7.276;2023-04-02T07:34:40;21.65;;;6.78;;
18544;SDS011;9402;51.460;7.276;2023-04-02T07:36:44;12.30;;;6.63;;
18544;SDS011;9402;51.460;7.276;2023-04-02T07:38:48;13.20;;;7.50;;
18544;SDS011;9402;51.460;7.276;2023-04-02T07:40:50;14.63;;;7.40;;
18544;SDS011;9402;51.460;7.276;2023-04-02T07:42:53;11.60;;;6.22;;
18544;SDS011;9402;51.460;7.276;2023-04-02T07:44:55;23.55;;;6.93;;
18544;SDS011;9402;51.460;7.276;2023-04-02T07:46:57;14.70;;;6.35;;
18544;SDS011;9402;51.460;7.276;2023-04-02T07:49:00;12.40;;;6.00;;
18544;SDS011;9402;51.460;7.276;2023-04-02T07:51:02;13.35;;;7.10;;
18544;SDS011;9402;51.460;7.276;2023-04-02T07:53:06;16.85;;;6.80;;
18544;SDS011;9402;51.460;7.276;2023-04-02T07:55:13;14.93;;;6.15;;
18544;SDS011;9402;51.460;7.276;2023-04-02T07:57:16;15.27;;;6.07;;
18544;SDS011;9402;51.460;7.276;2023-04-02T07:59:19;9.98;;;5.78;;
18544;SDS011;9402;51.460;7.276;2023-04-02T08:01:22;12.40;;;6.20;;
18544;SDS011;9402;51.460;7.276;2023-04-02T08:03:26;10.18;;;6.35;;
18544;SDS011;9402;51.460;7.276;2023-04-02T08:05:28;11.70;;;6.03;;
18544;SDS011;9402;51.460;7.276;2023-04-02T08:07:31;12.90;;;6.70;;
18544;SDS011;9402;51.460;7.276;2023-04-02T08:09:34;9.65;;;5.78;;
18544;SDS011;9402;51.460;7.276;2023-04-02T08:11:37;14.23;;;6.00;;
18544;SDS011;9402;51.460;7.276;2023-04-02T08:13:41;14.15;;;6.13;;
18544;SDS011;9402;51.460;7.276;2023-04-02T08:15:43;15.50;;;5.75;;
18544;SDS011;9402;51.460;7.276;2023-04-02T08:17:46;10.68;;;6.15;;
18544;SDS011;9402;51.460;7.276;2023-04-02T08:19:48;11.80;;;6.00;;
18544;SDS011;9402;51.460;7.276;2023-04-02T08:21:51;10.50;;;5.72;;
18544;SDS011;9402;51.460;7.276;2023-04-02T08:23:53;11.48;;;5.10;;
18544;SDS011;9402;51.460;7.276;2023-04-02T08:25:57;12.27;;;5.03;;
18544;SDS011;9402;51.460;7.276;2023-04-02T08:27:59;13.18;;;5.35;;
18544;SDS011;9402;51.460;7.276;2023-04-02T08:30:02;10.13;;;4.78;;
18544;SDS011;9402;51.460;7.276;2023-04-02T08:32:05;11.50;;;4.47;;
18544;SDS011;9402;51.460;7.276;2023-04-02T08:34:10;10.20;;;4.60;;
18544;SDS011;9402;51.460;7.276;2023-04-02T08:36:13;10.02;;;4.45;;
18544;SDS011;9402;51.460;7.276;2023-04-02T08:38:18;13.05;;;4.47;;
18544;SDS011;9402;51.460;7.276;2023-04-02T08:40:22;12.30;;;5.30;;
18544;SDS011;9402;51.460;7.276;2023-04-02T08:42:30;12.35;;;4.85;;
18544;SDS011;9402;51.460;7.276;2023-04-02T08:44:39;7.15;;;4.32;;
18544;SDS011;9402;51.460;7.276;2023-04-02T08:46:46;11.65;;;4.85;;
18544;SDS011;9402;51.460;7.276;2023-04-02T08:48:52;10.52;;;4.00;;
18544;SDS011;9402;51.460;7.276;2023-04-02T08:50:57;12.65;;;4.20;;
18544;SDS011;9402;51.460;7.276;2023-04-02T08:53:00;14.65;;;4.25;;
18544;SDS011;9402;51.460;7.276;2023-04-02T08:55:09;10.63;;;3.90;;
18544;SDS011;9402;51.460;7.276;2023-04-02T08:57:20;10.85;;;4.07;;
18544;SDS011;9402;51.460;7.276;2023-04-02T08:59:31;11.85;;;4.32;;
18544;SDS011;9402;51.460;7.276;2023-04-02T09:01:35;7.65;;;4.00;;
18544;SDS011;9402;51.460;7.276;2023-04-02T09:03:43;9.88;;;4.20;;
18544;SDS011;9402;51.460;7.276;2023-04-02T09:05:46;12.45;;;3.85;;
18544;SDS011;9402;51.460;7.276;2023-04-02T09:07:50;11.40;;;4.20;;
18544;SDS011;9402;51.460;7.276;2023-04-02T09:09:54;7.63;;;3.58;;
18544;SDS011;9402;51.460;7.276;2023-04-02T09:11:57;7.40;;;4.00;;
18544;SDS011;9402;51.460;7.276;2023-04-02T09:14:04;6.72;;;2.90;;
18544;SDS011;9402;51.460;7.276;2023-04-02T09:16:12;7.40;;;3.55;;
18544;SDS011;9402;51.460;7.276;2023-04-02T09:18:16;8.20;;;3.45;;
18544;SDS011;9402;51.460;7.276;2023-04-02T09:20:20;11.57;;;4.43;;
18544;SDS011;9402;51.460;7.276;2023-04-02T09:22:25;6.35;;;3.15;;
18544;SDS011;9402;51.460;7.276;2023-04-02T09:24:29;12.05;;;3.38;;
18544;SDS011;9402;51.460;7.276;2023-04-02T09:26:32;10.63;;;3.70;;
18544;SDS011;9402;51.460;7.276;2023-04-02T09:28:36;12.65;;;3.97;;
18544;SDS011;9402;51.460;7.276;2023-04-02T09:30:41;8.10;;;3.03;;
18544;SDS011;9402;51.460;7.276;2023-04-02T09:32:57;11.75;;;4.03;;
18544;SDS011;9402;51.460;7.276;2023-04-02T09:35:08;12.70;;;3.70;;
18544;SDS011;9402;51.460;7.276;2023-04-02T09:37:15;6.15;;;3.17;;
18544;SDS011;9402;51.460;7.276;2023-04-02T09:39:22;10.07;;;3.05;;
18544;SDS011;9402;51.460;7.276;2023-04-02T09:41:26;13.40;;;3.13;;
18544;SDS011;9402;51.460;7.276;2023-04-02T09:43:30;6.35;;;2.42;;
18544;SDS011;9402;51.460;7.276;2023-04-02T09:45:34;10.27;;;3.20;;
18544;SDS011;9402;51.460;7.276;2023-04-02T09:47:37;6.05;;;2.90;;
18544;SDS011;9402;51.460;7.276;2023-04-02T09:49:41;7.90;;;2.75;;
18544;SDS011;9402;51.460;7.276;2023-04-02T09:51:44;10.02;;;2.97;;
18544;SDS011;9402;51.460;7.276;2023-04-02T09:53:47;9.70;;;3.25;;
18544;SDS011;9402;51.460;7.276;2023-04-02T09:55:58;12.25;;;2.92;;
18544;SDS011;9402;51.460;7.276;2023-04-02T09:58:11;4.97;;;2.45;;
18544;SDS011;9402;51.460;7.276;2023-04-02T10:00:16;9.02;;;3.05;;
18544;SDS011;9402;51.460;7.276;2023-04-02T10:02:22;8.10;;;3.30;;
18544;SDS011;9402;51.460;7.276;2023-04-02T10:04:30;10.10;;;2.92;;
18544;SDS011;9402;51.460;7.276;2023-04-02T10:06:36;8.15;;;3.05;;
18544;SDS011;9402;51.460;7.276;2023-04-02T10:08:52;5.95;;;2.95;;
18544;SDS011;9402;51.460;7.276;2023-04-02T10:10:55;14.25;;;2.85;;
18544;SDS011;9402;51.460;7.276;2023-04-02T10:13:00;9.43;;;3.17;;
18544;SDS011;9402;51.460;7.276;2023-04-02T10:15:05;7.18;;;2.65;;
18544;SDS011;9402;51.460;7.276;2023-04-02T10:17:13;5.35;;;2.78;;
18544;SDS011;9402;51.460;7.276;2023-04-02T10:19:21;9.95;;;2.80;;
18544;SDS011;9402;51.460;7.276;2023-04-02T10:21:27;6.72;;;2.85;;
18544;SDS011;9402;51.460;7.276;2023-04-02T10:23:33;8.63;;;3.00;;
18544;SDS011;9402;51.460;7.276;2023-04-02T10:25:37;6.28;;;2.60;;
18544;SDS011;9402;51.460;7.276;2023-04-02T10:27:43;8.50;;;3.10;;
18544;SDS011;9402;51.460;7.276;2023-04-02T10:29:50;11.15;;;3.42;;
18544;SDS011;9402;51.460;7.276;2023-04-02T10:32:09;10.07;;;3.00;;
18544;SDS011;9402;51.460;7.276;2023-04-02T10:34:18;8.70;;;2.60;;
18544;SDS011;9402;51.460;7.276;2023-04-02T10:36:26;7.40;;;2.63;;
18544;SDS011;9402;51.460;7.276;2023-04-02T10:38:39;6.43;;;2.50;;
18544;SDS011;9402;51.460;7.276;2023-04-02T10:40:45;6.88;;;3.00;;
18544;SDS011;9402;51.460;7.276;2023-04-02T10:42:50;5.85;;;2.70;;
18544;SDS011;9402;51.460;7.276;2023-04-02T10:45:11;4.82;;;2.33;;
18544;SDS011;9402;51.460;7.276;2023-04-02T10:47:21;6.53;;;2.65;;
18544;SDS011;9402;51.460;7.276;2023-04-02T10:49:29;7.82;;;2.63;;
18544;SDS011;9402;51.460;7.276;2023-04-02T10:51:37;5.30;;;2.70;;
18544;SDS011;9402;51.460;7.276;2023-04-02T10:53:44;8.63;;;2.72;;
18544;SDS011;9402;51.460;7.276;2023-04-02T10:55:50;8.43;;;2.85;;
18544;SDS011;9402;51.460;7.276;2023-04-02T10:57:54;6.45;;;2.83;;
18544;SDS011;9402;51.460;7.276;2023-04-02T11:00:02;7.07;;;2.45;;
18544;SDS011;9402;51.460;7.276;2023-04-02T11:02:21;10.23;;;3.15;;
18544;SDS011;9402;51.460;7.276;2023-04-02T11:04:34;10.43;;;2.95;;
18544;SDS011;9402;51.460;7.276;2023-04-02T11:06:40;5.80;;;2.78;;
18544;SDS011;9402;51.460;7.276;2023-04-02T11:08:46;7.95;;;2.90;;
18544;SDS011;9402;51.460;7.276;2023-04-02T11:10:49;8.88;;;2.88;;
18544;SDS011;9402;51.460;7.276;2023-04-02T11:12:56;8.57;;;3.22;;
18544;SDS011;9402;51.460;7.276;2023-04-02T11:15:01;9.48;;;3.70;;
18544;SDS011;9402;51.460;7.276;2023-04-02T11:17:04;8.48;;;2.83;;
18544;SDS011;9402;51.460;7.276;2023-04-02T11:21:37;8.38;;;2.83;;
18544;SDS011;9402;51.460;7.276;2023-04-02T11:23:55;7.10;;;3.42;;
18544;SDS011;9402;51.460;7.276;2023-04-02T11:28:36;9.65;;;2.70;;
18544;SDS011;9402;51.460;7.276;2023-04-02T11:30:38;8.68;;;2.88;;
18544;SDS011;9402;51.460;7.276;2023-04-02T11:32:42;7.80;;;2.95;;
18544;SDS011;9402;51.460;7.276;2023-04-02T11:37:30;9.38;;;2.70;;
18544;SDS011;9402;51.460;7.276;2023-04-02T11:39:45;7.70;;;2.08;;
18544;SDS011;9402;51.460;7.276;2023-04-02T11:41:59;5.88;;;2.63;;
18544;SDS011;9402;51.460;7.276;2023-04-02T11:44:03;7.35;;;2.40;;
18544;SDS011;9402;51.460;7.276;2023-04-02T11:48:50;5.78;;;2.33;;
18544;SDS011;9402;51.460;7.276;2023-04-02T11:50:54;7.03;;;2.35;;
18544;SDS011;9402;51.460;7.276;2023-04-02T11:52:57;6.05;;;2.30;;
18544;SDS011;9402;51.460;7.276;2023-04-02T11:55:14;6.18;;;2.40;;
18544;SDS011;9402;51.460;7.276;2023-04-02T11:57:25;5.28;;;3.13;;
18544;SDS011;9402;51.460;7.276;2023-04-02T11:59:51;9.13;;;3.10;;
18544;SDS011;9402;51.460;7.276;2023-04-02T12:02:08;10.98;;;2.42;;
18544;SDS011;9402;51.460;7.276;2023-04-02T12:06:46;4.80;;;2.45;;
18544;SDS011;9402;51.460;7.276;2023-04-02T12:08:56;8.50;;;1.88;;
18544;SDS011;9402;51.460;7.276;2023-04-02T12:11:06;8.65;;;2.85;;
18544;SDS011;9402;51.460;7.276;2023-04-02T12:13:16;5.28;;;2.30;;
18544;SDS011;9402;51.460;7.276;2023-04-02T12:17:45;6.30;;;2.38;;
18544;SDS011;9402;51.460;7.276;2023-04-02T12:19:48;6.95;;;2.00;;
18544;SDS011;9402;51.460;7.276;2023-04-02T12:21:51;10.85;;;1.98;;
18544;SDS011;9402;51.460;7.276;2023-04-02T12:23:54;14.07;;;2.00;;
18544;SDS011;9402;51.460;7.276;2023-04-02T12:25:58;5.47;;;2.00;;
18544;SDS011;9402;51.460;7.276;2023-04-02T12:28:12;7.38;;;2.30;;
18544;SDS011;9402;51.460;7.276;2023-04-02T12:30:19;4.38;;;1.70;;
18544;SDS011;9402;51.460;7.276;2023-04-02T12:32:23;6.57;;;1.73;;
18544;SDS011;9402;51.460;7.276;2023-04-02T12:34:27;6.90;;;2.20;;
18544;SDS011;9402;51.460;7.276;2023-04-02T12:36:30;6.15;;;1.40;;
18544;SDS011;9402;51.460;7.276;2023-04-02T12:38:34;9.70;;;2.25;;
18544;SDS011;9402;51.460;7.276;2023-04-02T12:40:50;5.90;;;2.15;;
18544;SDS011;9402;51.460;7.276;2023-04-02T12:42:53;6.03;;;2.35;;
18544;SDS011;9402;51.460;7.276;2023-04-02T12:44:56;4.57;;;1.80;;
18544;SDS011;9402;51.460;7.276;2023-04-02T12:46:59;3.30;;;1.80;;
18544;SDS011;9402;51.460;7.276;2023-04-02T12:49:03;6.93;;;1.92;;
18544;SDS011;9402;51.460;7.276;2023-04-02T12:51:06;9.25;;;2.38;;